Time;durP1;ratioP1;P1;durP2;ratioP2;P2;SDS_P1;SDS_P2;PMS_P1;PMS_P2;Temp;Humidity;BMP_temperature;BMP_pressure;BME280_temperature;BME280_humidity;BME280_pressure;Samples;Min_cycle;Max_cycle;Signal;HPM_P1;HPM_P2
2021/04/12 00:00:07;;;;;;;14.50;12.18;;;;;;;18.18;66.60;100692.91;1769680;79;21119;-67
2021/04/12 00:02:50;;;;;;;13.32;11.93;;;;;;;18.24;66.40;100689.44;1772087;80;21155;-67
2021/04/12 00:05:29;;;;;;;13.48;12.07;;;;;;;18.19;66.46;100686.48;1781626;79;21429;-67
2021/04/12 00:08:07;;;;;;;13.28;11.10;;;;;;;18.15;66.54;100683.36;1779241;79;21490;-67
2021/04/12 00:11:02;;;;;;;14.43;12.37;;;;;;;18.13;66.70;100684.06;1741704;78;27078;-66
2021/04/12 00:13:47;;;;;;;12.63;11.28;;;;;;;18.07;66.70;100690.23;1685344;82;21169;-67
2021/04/12 00:16:27;;;;;;;14.63;11.70;;;;;;;18.03;66.76;100684.41;1698169;81;21074;-67
2021/04/12 00:19:03;;;;;;;12.28;11.00;;;;;;;18.14;66.50;100688.43;1707424;82;21214;-66
2021/04/12 00:21:50;;;;;;;12.98;11.57;;;;;;;18.11;66.50;100692.02;1720686;81;22352;-67
2021/04/12 00:24:44;;;;;;;13.25;11.85;;;;;;;18.07;66.56;100684.33;1708185;82;21170;-66
2021/04/12 00:27:39;;;;;;;14.13;11.83;;;;;;;18.03;66.70;100688.95;1709685;82;21209;-67
2021/04/12 00:30:32;;;;;;;13.68;11.68;;;;;;;17.99;66.81;100689.84;1699781;82;21428;-66
2021/04/12 00:33:26;;;;;;;12.30;11.10;;;;;;;17.95;66.84;100680.52;1709899;81;21365;-68
2021/04/12 00:36:18;;;;;;;15.13;11.90;;;;;;;17.98;66.81;100674.77;1722602;82;21182;-67
2021/04/12 00:39:01;;;;;;;13.20;11.83;;;;;;;18.02;66.66;100675.17;1703854;82;21199;-66
2021/04/12 00:42:18;;;;;;;12.53;11.12;;;;;;;17.97;66.78;100677.64;1721104;82;21178;-68
2021/04/12 00:45:16;;;;;;;13.83;10.60;;;;;;;17.93;66.87;100677.71;1707220;82;22146;-68
2021/04/12 00:48:11;;;;;;;12.10;10.82;;;;;;;17.87;67.06;100678.79;1722533;82;21643;-67
2021/04/12 00:50:56;;;;;;;13.25;11.85;;;;;;;17.82;67.15;100667.74;1708073;82;21154;-68
2021/04/12 00:54:04;;;;;;;14.40;11.80;;;;;;;17.86;67.08;100675.77;1719617;82;21214;-66
2021/04/12 00:56:46;;;;;;;15.43;11.97;;;;;;;17.85;66.90;100662.55;1713540;82;21167;-68
2021/04/12 00:59:37;;;;;;;13.15;11.57;;;;;;;17.84;66.85;100677.82;1763194;80;22309;-67
2021/04/12 01:02:25;;;;;;;15.35;12.58;;;;;;;17.80;67.06;100671.14;1750115;80;21173;-68
2021/04/12 01:05:13;;;;;;;13.68;11.80;;;;;;;17.77;67.23;100673.38;1752383;79;21178;-67
2021/04/12 01:08:24;;;;;;;12.70;11.40;;;;;;;17.73;67.32;100675.64;1751780;80;21118;-68
2021/04/12 01:11:31;;;;;;;13.65;11.95;;;;;;;17.76;67.17;100668.52;1760322;79;21122;-68
2021/04/12 01:14:27;;;;;;;13.58;11.83;;;;;;;17.81;66.95;100673.31;1747344;80;21374;-68
2021/04/12 01:17:20;;;;;;;13.53;11.93;;;;;;;17.75;67.10;100673.59;1762893;80;21119;-69
2021/04/12 01:20:38;;;;;;;12.37;10.80;;;;;;;17.69;67.16;100671.65;1731160;80;21178;-68
2021/04/12 01:23:54;;;;;;;13.15;11.53;;;;;;;17.66;67.21;100672.05;1761207;80;21762;-67
2021/04/12 01:26:52;;;;;;;12.55;11.30;;;;;;;17.60;67.35;100670.96;1756442;80;21138;-69
2021/04/12 01:31:49;;;;;;;13.00;11.70;;;;;;;17.72;67.31;100656.50;1835703;76;28483;-67
2021/04/12 01:34:44;;;;;;;13.25;11.90;;;;;;;17.58;67.42;100650.17;1774777;77;21150;-66
2021/04/12 01:37:52;;;;;;;14.10;11.97;;;;;;;17.55;67.55;100650.55;1799942;78;21351;-66
2021/04/12 01:40:50;;;;;;;14.25;12.50;;;;;;;17.52;67.63;100646.92;1766969;77;21185;-66
2021/04/12 01:43:28;;;;;;;13.88;11.12;;;;;;;17.47;67.71;100640.76;1794400;78;21027;-65
2021/04/12 01:46:00;;;;;;;14.65;12.70;;;;;;;17.52;67.67;100638.00;1776394;79;21130;-66
2021/04/12 01:48:45;;;;;;;15.03;12.82;;;;;;;17.57;67.38;100634.23;1773739;77;21129;-66
2021/04/12 01:51:41;;;;;;;13.95;12.45;;;;;;;17.55;67.44;100633.60;1755841;79;21346;-67
2021/04/12 01:54:59;;;;;;;15.25;12.75;;;;;;;17.51;67.43;100622.41;1793255;78;21138;-67
2021/04/12 01:57:44;;;;;;;14.38;12.93;;;;;;;17.47;67.54;100623.81;1795063;77;21032;-68
2021/04/12 02:00:40;;;;;;;13.60;12.10;;;;;;;17.41;67.62;100616.02;1777640;79;21150;-66
2021/04/12 02:03:25;;;;;;;14.53;12.23;;;;;;;17.45;67.66;100611.09;1789757;79;21186;-67
2021/04/12 02:06:10;;;;;;;14.33;12.53;;;;;;;17.53;67.48;100617.67;1788453;78;22455;-67
2021/04/12 02:09:22;;;;;;;14.40;12.95;;;;;;;17.47;67.52;100616.58;1813298;78;21598;-67
2021/04/12 02:11:59;;;;;;;14.70;13.18;;;;;;;17.44;67.53;100612.95;1793137;77;21137;-67
2021/04/12 02:15:07;;;;;;;15.55;13.95;;;;;;;17.39;67.68;100610.00;1799098;78;21157;-66
2021/04/12 02:18:16;;;;;;;15.88;13.40;;;;;;;17.36;67.74;100608.20;1779005;77;21169;-66
2021/04/12 02:20:57;;;;;;;14.05;12.55;;;;;;;17.39;67.70;100599.25;1788912;78;21388;-68
2021/04/12 02:24:16;;;;;;;14.15;12.73;;;;;;;17.40;67.55;100602.28;1719529;80;21208;-67
2021/04/12 02:27:04;;;;;;;15.25;13.15;;;;;;;17.38;67.64;100607.50;1740153;79;21568;-68
2021/04/12 02:30:07;;;;;;;14.98;12.65;;;;;;;17.31;67.78;100606.11;1750514;80;21290;-67
2021/04/12 02:33:00;;;;;;;13.60;12.20;;;;;;;17.28;67.91;100613.19;1755567;80;21146;-67
2021/04/12 02:36:02;;;;;;;14.60;13.13;;;;;;;17.28;67.95;100607.81;1749820;80;21296;-67
2021/04/12 02:38:42;;;;;;;14.07;12.53;;;;;;;17.35;67.71;100599.33;1754598;80;21915;-68
2021/04/12 02:41:44;;;;;;;14.70;13.15;;;;;;;17.32;67.71;100606.41;1754947;80;21185;-67
2021/04/12 02:44:36;;;;;;;14.98;13.30;;;;;;;17.28;67.81;100605.12;1759176;80;21640;-67
2021/04/12 02:47:30;;;;;;;14.55;13.00;;;;;;;17.25;67.82;100594.80;1756994;80;21198;-67
2021/04/12 02:50:55;;;;;;;13.05;11.78;;;;;;;17.22;67.90;100599.19;1760689;80;21404;-68
2021/04/12 02:54:05;;;;;;;15.38;12.53;;;;;;;17.28;67.79;100594.39;1744410;80;21161;-66
2021/04/12 02:57:05;;;;;;;14.18;12.63;;;;;;;17.30;67.70;100589.66;1744446;79;21165;-67
2021/04/12 03:00:11;;;;;;;14.33;12.13;;;;;;;17.24;67.76;100589.91;1785029;80;21180;-67
2021/04/12 03:02:57;;;;;;;13.83;12.40;;;;;;;17.20;67.80;100583.27;1764531;80;21166;-66
2021/04/12 03:05:43;;;;;;;14.07;12.58;;;;;;;17.16;68.03;100576.61;1745446;80;21134;-67
2021/04/12 03:08:33;;;;;;;13.93;12.35;;;;;;;17.22;67.91;100579.87;1747903;79;21147;-67
2021/04/12 03:11:12;;;;;;;13.15;11.63;;;;;;;17.29;67.69;100579.44;1784020;80;21192;-68
2021/04/12 03:14:11;;;;;;;13.40;12.03;;;;;;;17.25;67.73;100575.99;1746755;80;21131;-68
2021/04/12 03:17:03;;;;;;;13.72;12.30;;;;;;;17.23;67.77;100572.16;1720084;80;21558;-68
2021/04/12 03:20:19;;;;;;;14.83;13.22;;;;;;;17.20;67.86;100567.67;1728539;80;22271;-68
2021/04/12 03:23:34;;;;;;;13.72;12.30;;;;;;;17.16;67.91;100567.73;1756673;80;21156;-68
2021/04/12 03:26:33;;;;;;;14.87;12.07;;;;;;;17.19;67.86;100567.34;1758479;80;21148;-69
2021/04/12 03:29:27;;;;;;;12.90;11.60;;;;;;;17.21;67.84;100564.80;1761850;81;21193;-68
2021/04/12 03:32:47;;;;;;;14.03;12.63;;;;;;;17.16;67.91;100573.93;1792696;78;21185;-69
2021/04/12 03:35:50;;;;;;;13.25;11.85;;;;;;;17.12;67.98;100571.31;1783459;77;21404;-69
2021/04/12 03:38:42;;;;;;;13.38;12.07;;;;;;;17.08;68.14;100572.72;1799520;78;21130;-68
2021/04/12 03:41:39;;;;;;;14.23;12.73;;;;;;;17.16;68.04;100574.45;1787265;78;21189;-67
2021/04/12 03:44:49;;;;;;;13.38;11.70;;;;;;;17.23;67.92;100564.59;1784688;78;22808;-66
2021/04/12 03:47:55;;;;;;;14.55;12.47;;;;;;;17.15;68.01;100578.14;1758837;80;21186;-68
2021/04/12 03:50:56;;;;;;;15.03;12.63;;;;;;;17.11;68.08;100572.31;1754978;81;21460;-68
2021/04/12 03:54:00;;;;;;;12.73;11.43;;;;;;;17.06;68.26;100571.56;1779770;78;21439;-68
2021/04/12 03:57:12;;;;;;;14.13;12.63;;;;;;;17.14;68.24;100565.76;1787546;80;21621;-68
2021/04/12 04:00:29;;;;;;;14.25;11.75;;;;;;;17.19;68.09;100566.85;1778694;80;21618;-67
2021/04/12 04:03:45;;;;;;;13.45;12.05;;;;;;;17.13;68.12;100563.56;1782984;78;21690;-68
2021/04/12 04:06:23;;;;;;;13.75;12.33;;;;;;;17.08;68.31;100558.77;1750041;80;22111;-67
2021/04/12 04:09:24;;;;;;;13.95;12.25;;;;;;;17.05;68.44;100559.66;1789516;80;21165;-68
2021/04/12 04:12:03;;;;;;;12.85;11.53;;;;;;;17.08;68.46;100550.72;1787009;80;21708;-67
2021/04/12 04:15:29;;;;;;;14.28;12.78;;;;;;;17.18;68.25;100554.95;1786369;80;21153;-69
2021/04/12 04:18:29;;;;;;;13.93;12.33;;;;;;;17.15;68.28;100553.98;1783256;78;21131;-68
2021/04/12 04:21:35;;;;;;;13.10;11.70;;;;;;;17.09;68.44;100555.57;1784992;79;21596;-69
2021/04/12 04:24:32;;;;;;;11.93;10.72;;;;;;;17.06;68.59;100558.14;1786026;80;21125;-68
2021/04/12 04:27:40;;;;;;;13.53;12.07;;;;;;;17.06;68.69;100562.16;1773075;80;21164;-67
2021/04/12 04:30:16;;;;;;;14.55;11.22;;;;;;;17.16;68.51;100560.50;1748942;80;21210;-68
2021/04/12 04:33:10;;;;;;;14.33;12.10;;;;;;;17.14;68.54;100556.36;1790662;78;21184;-67
2021/04/12 04:36:15;;;;;;;;;;;;;;;17.12;68.63;100561.09;1768320;80;21989;-69
2021/04/12 04:39:09;;;;;;;;;;;;;;;17.09;68.78;100559.11;1785595;80;20589;-68
2021/04/12 04:42:03;;;;;;;14.18;12.68;;;;;;;16.99;69.10;100563.94;1765507;79;20253;-68
2021/04/12 04:45:10;;;;;;;12.37;11.08;;;;;;;16.92;69.38;100566.23;1799363;78;21209;-67
2021/04/12 04:48:19;;;;;;;13.53;12.13;;;;;;;17.01;69.26;100564.58;1786749;80;21120;-68
2021/04/12 04:51:24;;;;;;;12.73;11.43;;;;;;;17.06;69.14;100554.11;1790955;79;21376;-68
2021/04/12 04:54:15;;;;;;;13.48;12.07;;;;;;;17.04;69.19;100558.02;1787760;80;22014;-67
2021/04/12 04:57:20;;;;;;;12.75;11.45;;;;;;;17.02;69.32;100554.17;1785739;80;21758;-70
2021/04/12 05:00:07;;;;;;;12.03;10.80;;;;;;;17.02;69.37;100548.80;1774987;80;21169;-69
2021/04/12 05:03:31;;;;;;;12.65;11.38;;;;;;;17.13;69.16;100547.45;1784818;80;21153;-68
2021/04/12 05:06:30;;;;;;;12.53;11.20;;;;;;;17.16;69.14;100547.60;1788395;80;22079;-68
2021/04/12 05:09:29;;;;;;;12.60;11.30;;;;;;;17.13;69.23;100546.63;1786831;80;21154;-68
2021/04/12 05:12:38;;;;;;;12.82;11.50;;;;;;;17.12;69.33;100544.47;1788329;79;21586;-69
2021/04/12 05:15:19;;;;;;;12.60;11.08;;;;;;;17.13;69.42;100543.42;1788419;80;21131;-68
2021/04/12 05:18:24;;;;;;;13.03;11.63;;;;;;;17.24;69.28;100536.73;1771615;79;21140;-69
2021/04/12 05:21:09;;;;;;;12.80;11.48;;;;;;;17.26;69.26;100531.99;1754596;81;21409;-68
2021/04/12 05:24:27;;;;;;;15.40;12.18;;;;;;;17.24;69.39;100531.36;1767031;81;21226;-67
2021/04/12 05:27:20;;;;;;;13.38;10.98;;;;;;;17.25;69.52;100529.00;1767106;81;21142;-68
2021/04/12 05:30:33;;;;;;;12.90;11.60;;;;;;;17.27;69.60;100521.59;1766778;81;21163;-68
2021/04/12 05:33:22;;;;;;;14.50;12.90;;;;;;;17.37;69.45;100517.23;1758185;81;21174;-69
2021/04/12 05:36:31;;;;;;;13.30;11.95;;;;;;;17.35;69.65;100518.76;1761791;80;21391;-69
2021/04/12 05:39:29;;;;;;;13.15;11.85;;;;;;;17.33;69.81;100512.75;1764446;81;21175;-68
2021/04/12 05:42:23;;;;;;;13.58;12.18;;;;;;;17.30;70.07;100509.09;1766303;81;21191;-69
2021/04/12 05:45:30;;;;;;;13.13;11.73;;;;;;;17.39;70.09;100509.28;1736049;80;21144;-68
2021/04/12 05:48:27;;;;;;;13.75;12.15;;;;;;;17.47;70.02;100505.11;1744268;82;21596;-68
2021/04/12 05:51:26;;;;;;;12.53;11.22;;;;;;;17.44;70.17;100503.31;1744976;80;21184;-68
2021/04/12 05:54:18;;;;;;;12.35;11.10;;;;;;;17.42;70.36;100504.87;1745514;80;21160;-71
2021/04/12 05:57:42;;;;;;;13.08;11.60;;;;;;;17.42;70.48;100504.87;1708434;82;21172;-68
2021/04/12 06:00:15;;;;;;;12.18;10.95;;;;;;;17.55;70.33;100515.40;1723291;80;21194;-69
2021/04/12 06:03:15;;;;;;;13.18;11.88;;;;;;;17.54;70.42;100513.72;1746362;80;21147;-69
2021/04/12 06:06:12;;;;;;;13.00;11.57;;;;;;;17.52;70.54;100515.77;1723339;82;21326;-69
2021/04/12 06:08:51;;;;;;;14.28;12.82;;;;;;;17.51;70.66;100508.23;1718394;81;21194;-69
2021/04/12 06:11:50;;;;;;;13.32;11.97;;;;;;;17.59;70.62;100513.45;1752327;80;21431;-69
2021/04/12 06:14:42;;;;;;;14.35;12.10;;;;;;;17.67;70.45;100505.77;1739309;81;21163;-69
2021/04/12 06:17:54;;;;;;;13.68;12.28;;;;;;;17.66;70.55;100506.81;1774539;80;21538;-70
2021/04/12 06:20:44;;;;;;;13.65;12.25;;;;;;;17.63;70.66;100506.66;1764929;80;21398;-69
2021/04/12 06:23:41;;;;;;;13.00;11.55;;;;;;;17.63;70.80;100509.35;1772528;79;21186;-69
2021/04/12 06:26:26;;;;;;;13.22;11.83;;;;;;;17.74;70.67;100502.62;1743413;80;21179;-70
2021/04/12 06:29:11;;;;;;;14.18;12.73;;;;;;;17.76;70.70;100503.77;1740569;80;21173;-68
2021/04/12 06:32:27;;;;;;;13.58;11.70;;;;;;;17.74;70.82;100498.59;1772856;79;21180;-69
2021/04/12 06:35:38;;;;;;;14.28;12.78;;;;;;;17.74;70.94;100499.93;1769383;79;22091;-69
2021/04/12 06:39:01;;;;;;;14.20;12.63;;;;;;;17.83;70.92;100500.63;1768203;79;21119;-66
2021/04/12 06:41:58;;;;;;;14.07;11.90;;;;;;;17.88;70.86;100474.81;1771923;80;21174;-68
2021/04/12 06:44:52;;;;;;;14.13;12.28;;;;;;;17.86;71.03;100496.21;1742293;80;21607;-69
2021/04/12 06:48:05;;;;;;;14.90;12.73;;;;;;;17.85;71.34;100490.02;1765219;80;21198;-69
2021/04/12 06:50:50;;;;;;;14.78;12.30;;;;;;;17.94;71.43;100492.02;1775654;78;21342;-69
2021/04/12 06:54:01;;;;;;;12.70;11.40;;;;;;;18.02;71.35;100485.16;1781783;80;21154;-69
2021/04/12 06:56:41;;;;;;;15.83;12.68;;;;;;;18.01;71.44;100482.13;1782612;80;21129;-68
2021/04/12 06:59:32;;;;;;;14.03;11.83;;;;;;;18.01;71.58;100481.31;1782031;78;21512;-68
2021/04/12 07:02:23;;;;;;;13.83;11.53;;;;;;;18.09;71.65;100477.11;1801228;78;21131;-70
2021/04/12 07:05:47;;;;;;;13.53;12.05;;;;;;;18.19;71.56;100471.36;1724747;81;21663;-70
2021/04/12 07:08:32;;;;;;;16.15;12.25;;;;;;;18.18;71.67;100467.84;1743172;81;22197;-69
2021/04/12 07:11:31;;;;;;;13.50;11.55;;;;;;;18.17;71.83;100465.35;1785426;78;21127;-69
2021/04/12 07:14:34;;;;;;;14.28;11.33;;;;;;;18.22;71.95;100470.97;1778593;78;21170;-68
2021/04/12 07:17:33;;;;;;;12.90;11.63;;;;;;;18.32;71.86;100462.00;1776498;79;21155;-70
2021/04/12 07:20:35;;;;;;;13.25;11.88;;;;;;;18.32;71.97;100451.77;1776787;79;21375;-69
2021/04/12 07:23:41;;;;;;;13.32;11.93;;;;;;;18.32;72.10;100455.80;1780741;80;21189;-70
2021/04/12 07:27:01;;;;;;;12.53;11.25;;;;;;;18.34;72.16;100449.70;1783976;80;21133;-71
2021/04/12 07:29:37;;;;;;;12.55;11.25;;;;;;;18.46;71.93;100456.14;1770430;78;21209;-71
2021/04/12 07:32:35;;;;;;;15.15;13.55;;;;;;;18.46;71.94;100427.89;1776403;78;21213;-70
2021/04/12 07:35:37;;;;;;;15.50;13.85;;;;;;;18.45;71.88;100423.56;1780495;78;21195;-70
2021/04/12 07:39:03;;;;;;;21.17;16.02;;;;;;;18.47;71.65;100420.97;1787835;79;24876;-69
2021/04/12 07:42:03;;;;;;;22.73;18.65;;;;;;;18.59;71.24;100419.86;1764804;80;21181;-67
2021/04/12 07:44:45;;;;;;;25.52;20.75;;;;;;;18.63;70.97;100410.86;1765183;79;21149;-68
2021/04/12 07:47:47;;;;;;;27.87;21.57;;;;;;;18.64;70.84;100417.39;1770889;79;21137;-69
2021/04/12 07:50:49;;;;;;;29.07;22.02;;;;;;;18.67;70.80;100418.31;1791012;78;21381;-70
2021/04/12 07:53:56;;;;;;;25.48;19.82;;;;;;;18.74;70.58;100414.30;1776372;80;21197;-68
2021/04/12 07:57:01;;;;;;;31.15;21.90;;;;;;;18.86;70.20;100407.29;1782584;79;21224;-67
2021/04/12 07:59:48;;;;;;;22.95;20.45;;;;;;;18.87;69.95;100401.38;1762080;80;21178;-68
2021/04/12 08:03:02;;;;;;;24.80;21.70;;;;;;;18.92;69.84;100396.22;1809819;79;22927;-68
2021/04/12 08:05:59;;;;;;;25.72;19.90;;;;;;;18.91;69.63;100399.11;1782599;79;21120;-72
2021/04/12 08:09:07;;;;;;;24.60;19.90;;;;;;;18.95;69.41;100390.43;1761760;80;21377;-71
2021/04/12 08:11:56;;;;;;;26.37;20.23;;;;;;;19.08;69.03;100387.41;1777272;80;21195;-69
2021/04/12 08:14:53;;;;;;;21.47;19.03;;;;;;;19.12;68.77;100374.66;1802958;79;22806;-69
2021/04/12 08:17:59;;;;;;;23.85;18.87;;;;;;;19.09;68.60;100377.78;1787962;78;21203;-70
2021/04/12 08:20:55;;;;;;;21.87;18.55;;;;;;;19.10;68.44;100371.34;1780397;80;21399;-69
2021/04/12 08:24:01;;;;;;;21.02;16.85;;;;;;;19.11;68.24;100370.84;1782968;78;21249;-68
2021/04/12 08:27:01;;;;;;;25.02;17.50;;;;;;;19.11;68.06;100366.81;1746327;78;21167;-68
2021/04/12 08:30:09;;;;;;;20.72;16.23;;;;;;;19.23;67.65;100368.64;1760259;80;21183;-68
2021/04/12 08:33:17;;;;;;;18.65;15.95;;;;;;;19.24;67.36;100370.84;1761491;80;21677;-72
2021/04/12 08:36:13;;;;;;;20.10;17.05;;;;;;;19.23;67.18;100369.98;1762346;78;22897;-71
2021/04/12 08:39:13;;;;;;;19.48;15.68;;;;;;;19.22;67.04;100370.22;1762917;78;21239;-71
2021/04/12 08:42:04;;;;;;;21.23;15.35;;;;;;;19.22;66.86;100368.87;1755081;81;21178;-72
2021/04/12 08:44:52;;;;;;;21.10;14.30;;;;;;;19.23;66.87;100369.16;1773481;80;21553;-72
2021/04/12 08:47:48;;;;;;;19.20;14.60;;;;;;;19.23;66.77;100359.73;1761484;78;21188;-68
2021/04/12 08:50:45;;;;;;;20.08;14.58;;;;;;;19.33;66.50;100351.22;1766599;78;21566;-69
2021/04/12 08:53:39;;;;;;;19.20;14.13;;;;;;;19.33;66.27;100342.61;1757316;80;21616;-70
2021/04/12 08:56:38;;;;;;;19.32;14.13;;;;;;;19.31;66.18;100338.48;1762683;78;21172;-70
2021/04/12 08:59:30;;;;;;;19.37;14.28;;;;;;;19.29;66.09;100333.30;1763620;78;21598;-70
2021/04/12 09:02:15;;;;;;;19.90;14.55;;;;;;;19.27;66.08;100325.95;1770331;80;21427;-68
2021/04/12 09:05:05;;;;;;;17.98;13.65;;;;;;;19.24;66.09;100321.83;1772121;80;21213;-66
2021/04/12 09:08:08;;;;;;;19.45;13.60;;;;;;;19.24;65.97;100326.39;1730316;80;21649;-68
2021/04/12 09:11:08;;;;;;;17.15;13.00;;;;;;;19.23;65.91;100326.07;1735948;81;21627;-57
2021/04/12 09:14:26;;;;;;;19.45;13.50;;;;;;;19.30;65.83;100322.84;1760041;81;21182;-57
2021/04/12 09:17:31;;;;;;;19.62;13.35;;;;;;;19.36;65.76;100325.22;1758472;81;21143;-57
2021/04/12 09:20:59;;;;;;;19.27;12.88;;;;;;;19.33;66.01;100313.51;1748743;79;22857;-57
2021/04/12 09:24:04;;;;;;;16.25;12.88;;;;;;;19.25;66.16;100311.87;1713227;82;21159;-57
2021/04/12 09:27:12;;;;;;;15.65;11.43;;;;;;;19.21;66.38;100312.81;1725028;82;21439;-57
2021/04/12 09:29:54;;;;;;;19.15;12.13;;;;;;;19.18;66.47;100310.55;1723898;82;21156;-56
2021/04/12 09:33:11;;;;;;;14.65;11.60;;;;;;;19.15;66.55;100306.10;1690257;82;21142;-57
2021/04/12 09:35:50;;;;;;;16.55;11.73;;;;;;;19.18;66.48;100298.44;1713340;82;21186;-55
2021/04/12 09:39:13;;;;;;;15.35;11.22;;;;;;;19.23;66.15;100292.41;1724768;82;21167;-56
2021/04/12 09:42:21;;;;;;;15.98;11.90;;;;;;;19.20;66.07;100291.47;1728877;82;21365;-54
2021/04/12 09:45:47;;;;;;;13.72;10.72;;;;;;;19.16;66.10;100286.20;1736425;82;21154;-56
2021/04/12 09:48:40;;;;;;;14.47;11.43;;;;;;;19.10;66.11;100282.48;1725219;82;21199;-57
2021/04/12 09:51:30;;;;;;;;;;;;;;;19.06;65.90;100278.56;1746393;80;21180;-56
2021/04/12 09:54:38;;;;;;;13.53;10.50;;;;;;;19.03;66.03;100277.13;1719886;82;20278;-57
2021/04/12 09:57:34;;;;;;;15.88;10.93;;;;;;;18.95;66.25;100266.59;1730717;82;21205;-55
2021/04/12 10:00:34;;;;;;;14.65;11.28;;;;;;;19.04;66.18;100269.87;1724665;82;21177;-57
2021/04/12 10:03:34;;;;;;;13.75;10.68;;;;;;;19.10;65.83;100264.16;1721625;81;21583;-57
2021/04/12 10:06:28;;;;;;;11.88;9.50;;;;;;;19.10;65.78;100262.81;1719409;81;21211;-57
2021/04/12 10:09:40;;;;;;;12.60;10.18;;;;;;;19.09;65.60;100257.95;1717170;82;21602;-56
2021/04/12 10:12:29;;;;;;;13.93;9.38;;;;;;;19.09;65.35;100261.17;1733618;81;21363;-55
2021/04/12 10:15:26;;;;;;;15.28;11.08;;;;;;;19.07;65.31;100253.30;1735470;82;21210;-56
2021/04/12 10:18:26;;;;;;;13.32;10.08;;;;;;;19.07;65.27;100253.83;1776265;80;21134;-56
2021/04/12 10:21:07;;;;;;;11.12;9.08;;;;;;;19.06;65.31;100248.94;1781097;78;21184;-57
2021/04/12 10:23:34;;;;;;;14.70;9.30;;;;;;;19.04;65.24;100249.17;1781151;80;21185;-56
2021/04/12 10:26:24;;;;;;;15.08;10.30;;;;;;;19.11;65.24;100246.98;1761799;80;22171;-57
2021/04/12 10:28:57;;;;;;;12.90;9.98;;;;;;;19.18;64.91;100247.27;1746895;80;21200;-56
2021/04/12 10:31:29;;;;;;;12.53;10.45;;;;;;;19.18;64.74;100245.92;1783061;80;21149;-56
2021/04/12 10:34:30;;;;;;;13.05;9.58;;;;;;;19.16;64.75;100243.96;1757837;80;21134;-66
2021/04/12 10:37:18;;;;;;;12.13;9.98;;;;;;;19.15;64.64;100239.59;1778368;78;21109;-66
2021/04/12 10:40:35;;;;;;;17.07;10.23;;;;;;;19.13;64.39;100243.02;1778269;78;22548;-67
2021/04/12 10:43:29;;;;;;;10.82;8.38;;;;;;;19.10;63.53;100238.05;1784263;80;21114;-67
2021/04/12 10:46:32;;;;;;;11.18;9.88;;;;;;;19.08;64.09;100243.34;1775728;80;22293;-66
2021/04/12 10:49:15;;;;;;;11.28;8.75;;;;;;;19.04;63.85;100237.06;1783033;80;21150;-67
2021/04/12 10:52:06;;;;;;;11.73;9.67;;;;;;;19.03;64.04;100240.77;1779452;80;21181;-66
2021/04/12 10:55:02;;;;;;;12.25;9.30;;;;;;;19.01;63.79;100245.55;1743765;81;21403;-65
2021/04/12 10:57:49;;;;;;;15.18;9.35;;;;;;;19.01;63.81;100244.73;1717527;82;21180;-69
2021/04/12 11:00:49;;;;;;;11.15;9.05;;;;;;;18.98;63.68;100239.75;1722695;81;21599;-66
2021/04/12 11:03:34;;;;;;;11.53;9.08;;;;;;;18.98;63.64;100245.95;1725349;81;21186;-66
2021/04/12 11:06:42;;;;;;;10.78;8.98;;;;;;;18.98;63.22;100239.23;1730341;81;21163;-65
2021/04/12 11:09:46;;;;;;;12.70;9.25;;;;;;;18.98;63.62;100251.34;1717386;82;21202;-67
2021/04/12 11:12:44;;;;;;;11.93;9.30;;;;;;;18.98;63.17;100244.61;1721738;82;21151;-65
2021/04/12 11:15:35;;;;;;;11.70;8.48;;;;;;;18.99;62.73;100246.28;1727170;82;21249;-66
2021/04/12 11:18:22;;;;;;;11.30;8.25;;;;;;;19.00;62.85;100246.57;1718840;81;21661;-65
2021/04/12 11:21:08;;;;;;;9.60;8.15;;;;;;;19.03;62.90;100241.30;1719567;82;21155;-66
2021/04/12 11:24:22;;;;;;;10.30;7.80;;;;;;;19.04;63.12;100259.95;1719824;82;22103;-65
2021/04/12 11:27:34;;;;;;;9.00;7.33;;;;;;;19.08;63.21;100252.77;1732391;80;21157;-65
2021/04/12 11:30:25;;;;;;;10.20;7.70;;;;;;;19.19;63.80;100256.98;1720520;82;22102;-65
2021/04/12 11:33:10;;;;;;;9.63;7.25;;;;;;;19.24;64.04;100259.06;1729141;81;21674;-66
2021/04/12 11:36:20;;;;;;;9.33;7.37;;;;;;;19.23;64.20;100251.48;1729684;82;21229;-68
2021/04/12 11:39:16;;;;;;;10.08;7.72;;;;;;;19.22;64.44;100253.87;1731126;82;21576;-66
2021/04/12 11:42:00;;;;;;;9.05;7.80;;;;;;;19.20;64.46;100254.61;1732852;81;21790;-66
2021/04/12 11:44:40;;;;;;;9.35;7.70;;;;;;;19.19;64.57;100250.78;1732764;81;21123;-66
2021/04/12 11:47:28;;;;;;;10.63;8.35;;;;;;;19.17;64.49;100257.72;1734772;82;21178;-67
2021/04/12 11:50:20;;;;;;;8.40;7.35;;;;;;;19.18;64.39;100246.41;1720993;82;21176;-68
2021/04/12 11:53:23;;;;;;;8.83;7.67;;;;;;;19.17;62.28;100250.16;1705675;82;21407;-70
2021/04/12 11:56:07;;;;;;;9.15;7.85;;;;;;;19.17;61.26;100248.81;1724275;82;21174;-69
2021/04/12 11:58:54;;;;;;;10.75;8.83;;;;;;;19.15;59.92;100248.20;1728146;81;21194;-68
2021/04/12 12:01:57;;;;;;;10.28;7.80;;;;;;;19.19;59.95;100241.35;1795443;78;23323;-62
2021/04/12 12:05:00;;;;;;;10.13;7.78;;;;;;;19.16;59.35;100272.23;1755979;80;21191;-61
2021/04/12 12:07:42;;;;;;;11.28;8.45;;;;;;;19.16;62.08;100267.34;1759312;80;21366;-63
2021/04/12 12:10:50;;;;;;;9.63;7.95;;;;;;;19.13;62.08;100263.75;1761986;80;21246;-61
2021/04/12 12:13:29;;;;;;;8.48;6.97;;;;;;;19.10;62.80;100256.08;1784618;78;21547;-63
2021/04/12 12:16:29;;;;;;;8.23;7.22;;;;;;;19.18;63.77;100255.84;1757019;80;21167;-64
2021/04/12 12:19:12;;;;;;;8.15;7.12;;;;;;;19.22;64.07;100260.61;1777671;79;21178;-64
2021/04/12 12:21:51;;;;;;;8.53;7.05;;;;;;;19.20;64.42;100248.38;1810501;79;22748;-61
2021/04/12 12:24:49;;;;;;;9.33;7.60;;;;;;;19.13;64.57;100251.63;1786928;78;21239;-62
2021/04/12 12:27:38;;;;;;;10.63;7.05;;;;;;;19.09;64.68;100252.56;1775857;78;21200;-62
2021/04/12 12:30:11;;;;;;;9.03;7.72;;;;;;;19.07;64.51;100249.79;1776541;79;21125;-62
2021/04/12 12:32:53;;;;;;;11.48;7.97;;;;;;;19.00;64.60;100243.87;1782262;79;21177;-67
2021/04/12 12:35:45;;;;;;;7.75;6.97;;;;;;;18.96;63.73;100218.42;1787882;80;21139;-63
2021/04/12 12:39:09;;;;;;;10.35;8.40;;;;;;;19.05;63.98;100237.88;1792426;79;28735;-62
2021/04/12 12:41:45;;;;;;;9.08;7.55;;;;;;;19.02;64.30;100236.41;1738701;81;21219;-63
2021/04/12 12:44:13;;;;;;;9.20;7.50;;;;;;;18.96;64.72;100235.92;1749309;82;21371;-64
2021/04/12 12:46:43;;;;;;;12.05;8.13;;;;;;;18.92;64.90;100225.27;1745154;80;21183;-63
2021/04/12 12:49:22;;;;;;;11.10;8.03;;;;;;;18.89;64.86;100239.17;1758515;80;21569;-65
2021/04/12 12:52:03;;;;;;;9.90;7.80;;;;;;;18.86;64.89;100231.50;1778158;80;21174;-63
2021/04/12 12:54:48;;;;;;;11.47;8.30;;;;;;;18.84;64.82;100234.92;1767837;80;21185;-63
2021/04/12 12:57:30;;;;;;;7.95;7.15;;;;;;;18.81;64.89;100233.98;1772440;80;22265;-63
2021/04/12 13:00:18;;;;;;;10.25;7.83;;;;;;;18.84;64.98;100233.05;1774163;80;21568;-63
2021/04/12 13:02:45;;;;;;;9.65;8.10;;;;;;;18.91;64.88;100233.05;1765821;80;21196;-62
2021/04/12 13:05:25;;;;;;;8.83;7.50;;;;;;;18.87;64.93;100233.14;1774880;80;21207;-64
2021/04/12 13:08:33;;;;;;;8.65;7.40;;;;;;;18.84;65.10;100235.74;1777328;80;21163;-64
2021/04/12 13:11:02;;;;;;;9.03;7.58;;;;;;;18.83;65.15;100231.91;1773117;80;23384;-64
2021/04/12 13:13:35;;;;;;;8.55;7.65;;;;;;;18.80;65.47;100231.00;1778430;79;21183;-63
2021/04/12 13:16:14;;;;;;;7.85;7.05;;;;;;;18.77;65.74;100230.03;1798645;79;21112;-63
2021/04/12 13:18:44;;;;;;;8.20;7.10;;;;;;;18.77;65.81;100234.07;1792665;79;21092;-62
2021/04/12 13:21:19;;;;;;;9.38;7.12;;;;;;;18.83;65.93;100230.06;1733676;79;21172;-63
2021/04/12 13:23:53;;;;;;;7.85;6.97;;;;;;;18.90;65.81;100231.91;1756496;80;21365;-61
2021/04/12 13:26:40;;;;;;;;;;;;;;;18.89;65.78;100230.24;1761501;80;21155;-62